sensor_id;sensor_type;location;lat;lon;timestamp;temperature;humidity
83327;DHT22;73250;55.594;13.020;2023-11-22T00:01:35;20.80;33.90
83327;DHT22;73250;55.594;13.020;2023-11-22T00:04:02;20.80;33.80
83327;DHT22;73250;55.594;13.020;2023-11-22T00:06:29;20.80;33.90
83327;DHT22;73250;55.594;13.020;2023-11-22T00:08:55;20.80;33.90
83327;DHT22;73250;55.594;13.020;2023-11-22T00:11:22;20.80;33.90
83327;DHT22;73250;55.594;13.020;2023-11-22T00:13:50;20.80;34.00
83327;DHT22;73250;55.594;13.020;2023-11-22T00:16:21;20.80;34.00
83327;DHT22;73250;55.594;13.020;2023-11-22T00:18:47;20.80;33.90
83327;DHT22;73250;55.594;13.020;2023-11-22T00:21:14;20.80;33.90
83327;DHT22;73250;55.594;13.020;2023-11-22T00:23:40;20.80;34.00
83327;DHT22;73250;55.594;13.020;2023-11-22T00:26:08;20.80;33.90
83327;DHT22;73250;55.594;13.020;2023-11-22T00:28:36;20.80;33.90
83327;DHT22;73250;55.594;13.020;2023-11-22T00:31:04;20.80;33.90
83327;DHT22;73250;55.594;13.020;2023-11-22T00:33:31;20.80;33.80
83327;DHT22;73250;55.594;13.020;2023-11-22T00:35:58;20.80;33.80
83327;DHT22;73250;55.594;13.020;2023-11-22T00:38:24;20.80;33.80
83327;DHT22;73250;55.594;13.020;2023-11-22T00:40:51;20.70;33.80
83327;DHT22;73250;55.594;13.020;2023-11-22T00:43:18;20.80;33.70
83327;DHT22;73250;55.594;13.020;2023-11-22T00:45:45;20.80;33.90
83327;DHT22;73250;55.594;13.020;2023-11-22T00:48:13;20.70;33.80
83327;DHT22;73250;55.594;13.020;2023-11-22T00:50:39;20.70;33.80
83327;DHT22;73250;55.594;13.020;2023-11-22T00:53:06;20.70;33.80
83327;DHT22;73250;55.594;13.020;2023-11-22T00:55:33;20.70;33.80
83327;DHT22;73250;55.594;13.020;2023-11-22T00:58:00;20.70;33.80
83327;DHT22;73250;55.594;13.020;2023-11-22T01:00:29;20.70;33.70
83327;DHT22;73250;55.594;13.020;2023-11-22T01:02:56;20.70;33.70
83327;DHT22;73250;55.594;13.020;2023-11-22T01:05:24;20.70;33.80
83327;DHT22;73250;55.594;13.020;2023-11-22T01:07:51;20.70;33.80
83327;DHT22;73250;55.594;13.020;2023-11-22T01:10:18;20.70;33.80
83327;DHT22;73250;55.594;13.020;2023-11-22T01:12:44;20.70;33.70
83327;DHT22;73250;55.594;13.020;2023-11-22T01:15:11;20.70;33.70
83327;DHT22;73250;55.594;13.020;2023-11-22T01:17:37;20.70;33.70
83327;DHT22;73250;55.594;13.020;2023-11-22T01:20:05;20.70;33.70
83327;DHT22;73250;55.594;13.020;2023-11-22T01:22:38;20.70;33.70
83327;DHT22;73250;55.594;13.020;2023-11-22T01:25:05;20.70;33.70
83327;DHT22;73250;55.594;13.020;2023-11-22T01:27:32;20.70;33.80
83327;DHT22;73250;55.594;13.020;2023-11-22T01:29:58;20.70;33.80
83327;DHT22;73250;55.594;13.020;2023-11-22T01:32:25;20.70;33.80
83327;DHT22;73250;55.594;13.020;2023-11-22T01:34:52;20.70;33.80
83327;DHT22;73250;55.594;13.020;2023-11-22T01:37:18;20.70;33.80
83327;DHT22;73250;55.594;13.020;2023-11-22T01:39:47;20.70;33.80
83327;DHT22;73250;55.594;13.020;2023-11-22T01:42:14;20.70;33.70
83327;DHT22;73250;55.594;13.020;2023-11-22T01:44:41;20.70;33.80
83327;DHT22;73250;55.594;13.020;2023-11-22T01:47:08;20.70;33.80
83327;DHT22;73250;55.594;13.020;2023-11-22T01:49:35;20.70;33.80
83327;DHT22;73250;55.594;13.020;2023-11-22T01:52:03;20.70;33.80
83327;DHT22;73250;55.594;13.020;2023-11-22T01:54:31;20.70;33.70
83327;DHT22;73250;55.594;13.020;2023-11-22T01:57:00;20.70;33.70
83327;DHT22;73250;55.594;13.020;2023-11-22T01:59:27;20.70;33.70
83327;DHT22;73250;55.594;13.020;2023-11-22T02:01:57;20.60;33.70
83327;DHT22;73250;55.594;13.020;2023-11-22T02:04:24;20.70;33.70
83327;DHT22;73250;55.594;13.020;2023-11-22T02:06:51;20.60;33.70
83327;DHT22;73250;55.594;13.020;2023-11-22T02:09:17;20.60;33.70
83327;DHT22;73250;55.594;13.020;2023-11-22T02:11:44;20.60;33.70
83327;DHT22;73250;55.594;13.020;2023-11-22T02:14:14;20.60;33.70
83327;DHT22;73250;55.594;13.020;2023-11-22T02:16:41;20.60;33.70
83327;DHT22;73250;55.594;13.020;2023-11-22T02:19:14;20.60;33.70
83327;DHT22;73250;55.594;13.020;2023-11-22T02:21:41;20.60;33.70
83327;DHT22;73250;55.594;13.020;2023-11-22T02:24:09;20.60;33.70
83327;DHT22;73250;55.594;13.020;2023-11-22T02:26:37;20.60;33.70
83327;DHT22;73250;55.594;13.020;2023-11-22T02:29:04;20.60;33.70
83327;DHT22;73250;55.594;13.020;2023-11-22T02:31:30;20.60;33.70
83327;DHT22;73250;55.594;13.020;2023-11-22T02:33:57;20.60;33.70
83327;DHT22;73250;55.594;13.020;2023-11-22T02:36:24;20.60;33.70
83327;DHT22;73250;55.594;13.020;2023-11-22T02:38:50;20.60;33.70
83327;DHT22;73250;55.594;13.020;2023-11-22T02:41:18;20.60;33.70
83327;DHT22;73250;55.594;13.020;2023-11-22T02:43:45;20.60;33.70
83327;DHT22;73250;55.594;13.020;2023-11-22T02:46:12;20.60;33.60
83327;DHT22;73250;55.594;13.020;2023-11-22T02:48:39;20.60;33.70
83327;DHT22;73250;55.594;13.020;2023-11-22T02:51:06;20.60;33.70
83327;DHT22;73250;55.594;13.020;2023-11-22T02:53:33;20.60;33.60
83327;DHT22;73250;55.594;13.020;2023-11-22T02:55:59;20.60;33.60
83327;DHT22;73250;55.594;13.020;2023-11-22T02:58:29;20.60;33.70
83327;DHT22;73250;55.594;13.020;2023-11-22T03:00:56;20.60;33.60
83327;DHT22;73250;55.594;13.020;2023-11-22T03:03:22;20.50;33.60
83327;DHT22;73250;55.594;13.020;2023-11-22T03:05:50;20.60;33.70
83327;DHT22;73250;55.594;13.020;2023-11-22T03:08:17;20.60;33.60
83327;DHT22;73250;55.594;13.020;2023-11-22T03:10:43;20.50;33.60
83327;DHT22;73250;55.594;13.020;2023-11-22T03:13:10;20.60;33.70
83327;DHT22;73250;55.594;13.020;2023-11-22T03:15:38;20.50;33.70
83327;DHT22;73250;55.594;13.020;2023-11-22T03:18:05;20.60;33.70
83327;DHT22;73250;55.594;13.020;2023-11-22T03:20:31;20.50;33.60
83327;DHT22;73250;55.594;13.020;2023-11-22T03:22:58;20.50;33.50
83327;DHT22;73250;55.594;13.020;2023-11-22T03:25:25;20.50;33.50
83327;DHT22;73250;55.594;13.020;2023-11-22T03:27:52;20.50;33.50
83327;DHT22;73250;55.594;13.020;2023-11-22T03:30:18;20.50;33.50
83327;DHT22;73250;55.594;13.020;2023-11-22T03:32:47;20.50;33.60
83327;DHT22;73250;55.594;13.020;2023-11-22T03:35:15;20.50;33.50
83327;DHT22;73250;55.594;13.020;2023-11-22T03:37:42;20.50;33.50
83327;DHT22;73250;55.594;13.020;2023-11-22T03:40:09;20.50;33.50
83327;DHT22;73250;55.594;13.020;2023-11-22T03:42:36;20.50;33.60
83327;DHT22;73250;55.594;13.020;2023-11-22T03:45:05;20.50;33.50
83327;DHT22;73250;55.594;13.020;2023-11-22T03:47:32;20.50;33.50
83327;DHT22;73250;55.594;13.020;2023-11-22T03:50:00;20.50;33.40
83327;DHT22;73250;55.594;13.020;2023-11-22T03:52:27;20.50;33.40
83327;DHT22;73250;55.594;13.020;2023-11-22T03:54:53;20.50;33.40
83327;DHT22;73250;55.594;13.020;2023-11-22T03:57:20;20.50;33.40
83327;DHT22;73250;55.594;13.020;2023-11-22T03:59:46;20.50;33.40
83327;DHT22;73250;55.594;13.020;2023-11-22T04:02:14;20.50;33.20
83327;DHT22;73250;55.594;13.020;2023-11-22T04:04:40;20.50;33.30
83327;DHT22;73250;55.594;13.020;2023-11-22T04:07:08;20.50;33.30
83327;DHT22;73250;55.594;13.020;2023-11-22T04:09:35;20.50;33.20
83327;DHT22;73250;55.594;13.020;2023-11-22T04:12:02;20.50;33.20
83327;DHT22;73250;55.594;13.020;2023-11-22T04:14:29;20.50;33.20
83327;DHT22;73250;55.594;13.020;2023-11-22T04:16:56;20.50;33.10
83327;DHT22;73250;55.594;13.020;2023-11-22T04:19:22;20.50;33.10
83327;DHT22;73250;55.594;13.020;2023-11-22T04:21:49;20.50;33.10
83327;DHT22;73250;55.594;13.020;2023-11-22T04:24:17;20.50;33.20
83327;DHT22;73250;55.594;13.020;2023-11-22T04:26:44;20.50;33.10
83327;DHT22;73250;55.594;13.020;2023-11-22T04:29:11;20.50;33.10
83327;DHT22;73250;55.594;13.020;2023-11-22T04:31:37;20.50;33.10
83327;DHT22;73250;55.594;13.020;2023-11-22T04:34:04;20.50;33.10
83327;DHT22;73250;55.594;13.020;2023-11-22T04:36:31;20.50;33.00
83327;DHT22;73250;55.594;13.020;2023-11-22T04:38:57;20.40;33.00
83327;DHT22;73250;55.594;13.020;2023-11-22T04:41:28;20.40;32.90
83327;DHT22;73250;55.594;13.020;2023-11-22T04:43:55;20.40;33.00
83327;DHT22;73250;55.594;13.020;2023-11-22T04:46:21;20.40;33.00
83327;DHT22;73250;55.594;13.020;2023-11-22T04:48:49;20.40;32.90
83327;DHT22;73250;55.594;13.020;2023-11-22T04:51:16;20.40;32.90
83327;DHT22;73250;55.594;13.020;2023-11-22T04:53:43;20.40;33.00
83327;DHT22;73250;55.594;13.020;2023-11-22T04:56:10;20.40;32.90
83327;DHT22;73250;55.594;13.020;2023-11-22T04:58:38;20.40;32.90
83327;DHT22;73250;55.594;13.020;2023-11-22T05:01:05;20.40;32.80
83327;DHT22;73250;55.594;13.020;2023-11-22T05:03:31;20.40;32.80
83327;DHT22;73250;55.594;13.020;2023-11-22T05:05:59;20.40;32.80
83327;DHT22;73250;55.594;13.020;2023-11-22T05:08:26;20.40;32.80
83327;DHT22;73250;55.594;13.020;2023-11-22T05:10:52;20.40;32.80
83327;DHT22;73250;55.594;13.020;2023-11-22T05:13:19;20.40;32.80
83327;DHT22;73250;55.594;13.020;2023-11-22T05:15:47;20.40;32.80
83327;DHT22;73250;55.594;13.020;2023-11-22T05:18:15;20.40;32.80
83327;DHT22;73250;55.594;13.020;2023-11-22T05:20:42;20.40;32.90
83327;DHT22;73250;55.594;13.020;2023-11-22T05:23:09;20.40;32.80
83327;DHT22;73250;55.594;13.020;2023-11-22T05:25:36;20.40;33.50
83327;DHT22;73250;55.594;13.020;2023-11-22T05:28:03;20.40;32.80
83327;DHT22;73250;55.594;13.020;2023-11-22T05:30:30;20.40;32.80
83327;DHT22;73250;55.594;13.020;2023-11-22T05:32:58;20.40;32.80
83327;DHT22;73250;55.594;13.020;2023-11-22T05:35:27;20.40;32.80
83327;DHT22;73250;55.594;13.020;2023-11-22T05:37:54;20.40;32.80
83327;DHT22;73250;55.594;13.020;2023-11-22T05:40:20;20.40;32.80
83327;DHT22;73250;55.594;13.020;2023-11-22T05:42:47;20.40;32.80
83327;DHT22;73250;55.594;13.020;2023-11-22T05:45:13;20.40;32.80
83327;DHT22;73250;55.594;13.020;2023-11-22T05:47:40;20.40;32.80
83327;DHT22;73250;55.594;13.020;2023-11-22T05:50:09;20.40;32.80
83327;DHT22;73250;55.594;13.020;2023-11-22T05:52:36;20.40;32.80
83327;DHT22;73250;55.594;13.020;2023-11-22T05:55:03;20.40;32.80
83327;DHT22;73250;55.594;13.020;2023-11-22T05:57:30;20.40;32.70
83327;DHT22;73250;55.594;13.020;2023-11-22T05:59:57;20.30;32.70
83327;DHT22;73250;55.594;13.020;2023-11-22T06:02:23;20.30;32.70
83327;DHT22;73250;55.594;13.020;2023-11-22T06:04:50;20.30;32.70
83327;DHT22;73250;55.594;13.020;2023-11-22T06:07:18;20.30;32.70
83327;DHT22;73250;55.594;13.020;2023-11-22T06:09:45;20.30;32.70
83327;DHT22;73250;55.594;13.020;2023-11-22T06:12:11;20.30;32.70
83327;DHT22;73250;55.594;13.020;2023-11-22T06:14:38;20.30;32.70
83327;DHT22;73250;55.594;13.020;2023-11-22T06:17:05;20.30;32.70
83327;DHT22;73250;55.594;13.020;2023-11-22T06:19:31;20.30;32.70
83327;DHT22;73250;55.594;13.020;2023-11-22T06:21:58;20.30;32.70
83327;DHT22;73250;55.594;13.020;2023-11-22T06:24:28;20.30;32.70
83327;DHT22;73250;55.594;13.020;2023-11-22T06:26:54;20.30;32.70
83327;DHT22;73250;55.594;13.020;2023-11-22T06:29:21;20.30;32.70
83327;DHT22;73250;55.594;13.020;2023-11-22T06:31:47;20.30;32.70
83327;DHT22;73250;55.594;13.020;2023-11-22T06:34:14;20.30;32.70
83327;DHT22;73250;55.594;13.020;2023-11-22T06:36:41;20.30;32.70
83327;DHT22;73250;55.594;13.020;2023-11-22T06:39:07;20.30;32.70
83327;DHT22;73250;55.594;13.020;2023-11-22T06:41:36;20.30;32.70
83327;DHT22;73250;55.594;13.020;2023-11-22T06:44:02;20.30;32.70
83327;DHT22;73250;55.594;13.020;2023-11-22T06:46:29;20.30;32.70
83327;DHT22;73250;55.594;13.020;2023-11-22T06:48:56;20.30;32.70
83327;DHT22;73250;55.594;13.020;2023-11-22T06:51:22;20.30;32.70
83327;DHT22;73250;55.594;13.020;2023-11-22T06:53:49;20.30;32.70
83327;DHT22;73250;55.594;13.020;2023-11-22T06:56:17;20.30;32.70
83327;DHT22;73250;55.594;13.020;2023-11-22T06:58:45;20.30;32.70
83327;DHT22;73250;55.594;13.020;2023-11-22T07:01:12;20.30;32.70
83327;DHT22;73250;55.594;13.020;2023-11-22T07:03:40;20.30;32.70
83327;DHT22;73250;55.594;13.020;2023-11-22T07:06:07;20.30;32.70
83327;DHT22;73250;55.594;13.020;2023-11-22T07:08:35;20.30;32.80
83327;DHT22;73250;55.594;13.020;2023-11-22T07:11:01;20.30;32.90
83327;DHT22;73250;55.594;13.020;2023-11-22T07:13:29;20.30;32.80
83327;DHT22;73250;55.594;13.020;2023-11-22T07:15:57;20.30;32.80
83327;DHT22;73250;55.594;13.020;2023-11-22T07:18:23;20.30;32.80
83327;DHT22;73250;55.594;13.020;2023-11-22T07:20:50;20.30;32.80
83327;DHT22;73250;55.594;13.020;2023-11-22T07:23:19;20.30;32.80
83327;DHT22;73250;55.594;13.020;2023-11-22T07:25:46;20.30;32.80
83327;DHT22;73250;55.594;13.020;2023-11-22T07:28:13;20.30;32.80
83327;DHT22;73250;55.594;13.020;2023-11-22T07:30:40;20.30;32.80
83327;DHT22;73250;55.594;13.020;2023-11-22T07:33:08;20.30;32.80
83327;DHT22;73250;55.594;13.020;2023-11-22T07:35:36;20.30;32.90
83327;DHT22;73250;55.594;13.020;2023-11-22T07:38:04;20.20;32.80
83327;DHT22;73250;55.594;13.020;2023-11-22T07:40:33;20.30;33.00
83327;DHT22;73250;55.594;13.020;2023-11-22T07:43:00;20.30;32.90
83327;DHT22;73250;55.594;13.020;2023-11-22T07:45:28;20.30;33.00
83327;DHT22;73250;55.594;13.020;2023-11-22T07:47:55;20.30;33.10
83327;DHT22;73250;55.594;13.020;2023-11-22T07:50:26;20.30;33.10
83327;DHT22;73250;55.594;13.020;2023-11-22T07:52:52;20.30;33.20
83327;DHT22;73250;55.594;13.020;2023-11-22T07:55:20;20.30;33.30
83327;DHT22;73250;55.594;13.020;2023-11-22T07:57:48;20.30;33.40
83327;DHT22;73250;55.594;13.020;2023-11-22T08:00:15;20.40;33.60
83327;DHT22;73250;55.594;13.020;2023-11-22T08:02:44;20.40;33.70
83327;DHT22;73250;55.594;13.020;2023-11-22T08:05:11;20.40;33.80
83327;DHT22;73250;55.594;13.020;2023-11-22T08:07:42;20.40;33.90
83327;DHT22;73250;55.594;13.020;2023-11-22T08:10:11;20.40;34.00
83327;DHT22;73250;55.594;13.020;2023-11-22T08:12:44;20.40;34.00
83327;DHT22;73250;55.594;13.020;2023-11-22T08:15:11;20.40;34.10
83327;DHT22;73250;55.594;13.020;2023-11-22T08:17:39;20.50;34.30
83327;DHT22;73250;55.594;13.020;2023-11-22T08:20:06;20.50;34.30
83327;DHT22;73250;55.594;13.020;2023-11-22T08:22:37;20.50;34.40
83327;DHT22;73250;55.594;13.020;2023-11-22T08:25:07;20.50;34.60
83327;DHT22;73250;55.594;13.020;2023-11-22T08:27:38;20.50;34.80
83327;DHT22;73250;55.594;13.020;2023-11-22T08:30:06;20.50;34.90
83327;DHT22;73250;55.594;13.020;2023-11-22T08:32:41;20.50;34.70
83327;DHT22;73250;55.594;13.020;2023-11-22T08:35:09;20.50;35.20
83327;DHT22;73250;55.594;13.020;2023-11-22T08:37:39;20.60;35.60
83327;DHT22;73250;55.594;13.020;2023-11-22T08:40:09;20.60;35.70
83327;DHT22;73250;55.594;13.020;2023-11-22T08:42:36;20.60;35.80
83327;DHT22;73250;55.594;13.020;2023-11-22T08:45:04;20.60;35.80
83327;DHT22;73250;55.594;13.020;2023-11-22T08:47:30;20.60;36.00
83327;DHT22;73250;55.594;13.020;2023-11-22T08:49:57;20.60;35.90
83327;DHT22;73250;55.594;13.020;2023-11-22T08:52:24;20.60;36.20
83327;DHT22;73250;55.594;13.020;2023-11-22T08:54:51;20.60;36.30
83327;DHT22;73250;55.594;13.020;2023-11-22T08:57:19;20.70;36.00
83327;DHT22;73250;55.594;13.020;2023-11-22T08:59:46;20.70;37.40
83327;DHT22;73250;55.594;13.020;2023-11-22T09:02:13;21.00;36.40
83327;DHT22;73250;55.594;13.020;2023-11-22T09:04:40;21.20;36.20
83327;DHT22;73250;55.594;13.020;2023-11-22T09:07:07;21.40;36.30
83327;DHT22;73250;55.594;13.020;2023-11-22T09:09:36;21.10;36.00
83327;DHT22;73250;55.594;13.020;2023-11-22T09:12:03;21.10;36.50
83327;DHT22;73250;55.594;13.020;2023-11-22T09:14:31;21.00;36.30
83327;DHT22;73250;55.594;13.020;2023-11-22T09:16:58;20.90;36.30
83327;DHT22;73250;55.594;13.020;2023-11-22T09:19:26;20.90;36.50
83327;DHT22;73250;55.594;13.020;2023-11-22T09:21:53;20.90;37.00
83327;DHT22;73250;55.594;13.020;2023-11-22T09:24:20;20.90;36.80
83327;DHT22;73250;55.594;13.020;2023-11-22T09:26:47;20.90;37.00
83327;DHT22;73250;55.594;13.020;2023-11-22T09:29:13;20.90;37.20
83327;DHT22;73250;55.594;13.020;2023-11-22T09:31:41;20.80;37.00
83327;DHT22;73250;55.594;13.020;2023-11-22T09:34:08;20.80;37.10
83327;DHT22;73250;55.594;13.020;2023-11-22T09:36:35;20.80;37.00
83327;DHT22;73250;55.594;13.020;2023-11-22T09:39:02;20.80;37.10
83327;DHT22;73250;55.594;13.020;2023-11-22T09:41:33;20.80;37.00
83327;DHT22;73250;55.594;13.020;2023-11-22T09:44:00;20.80;37.10
83327;DHT22;73250;55.594;13.020;2023-11-22T09:46:28;20.80;37.00
83327;DHT22;73250;55.594;13.020;2023-11-22T09:48:57;20.80;37.30
83327;DHT22;73250;55.594;13.020;2023-11-22T09:51:27;20.80;37.20
83327;DHT22;73250;55.594;13.020;2023-11-22T09:53:56;20.80;37.10
83327;DHT22;73250;55.594;13.020;2023-11-22T09:56:24;20.80;37.20
83327;DHT22;73250;55.594;13.020;2023-11-22T09:58:53;20.80;37.10
83327;DHT22;73250;55.594;13.020;2023-11-22T10:01:21;20.80;37.10
83327;DHT22;73250;55.594;13.020;2023-11-22T10:03:48;20.90;37.20
83327;DHT22;73250;55.594;13.020;2023-11-22T10:06:16;20.90;37.30
83327;DHT22;73250;55.594;13.020;2023-11-22T10:08:44;20.90;37.20
83327;DHT22;73250;55.594;13.020;2023-11-22T10:11:15;20.90;37.20
83327;DHT22;73250;55.594;13.020;2023-11-22T10:13:42;20.90;37.10
83327;DHT22;73250;55.594;13.020;2023-11-22T10:16:12;20.90;37.00
83327;DHT22;73250;55.594;13.020;2023-11-22T10:18:42;20.90;37.10
83327;DHT22;73250;55.594;13.020;2023-11-22T10:21:21;20.90;37.10
83327;DHT22;73250;55.594;13.020;2023-11-22T10:23:49;20.90;37.20
83327;DHT22;73250;55.594;13.020;2023-11-22T10:26:17;20.90;37.10
83327;DHT22;73250;55.594;13.020;2023-11-22T10:28:44;20.90;37.20
83327;DHT22;73250;55.594;13.020;2023-11-22T10:31:10;20.90;37.20
83327;DHT22;73250;55.594;13.020;2023-11-22T10:33:39;21.00;37.10
83327;DHT22;73250;55.594;13.020;2023-11-22T10:36:07;21.00;37.10
83327;DHT22;73250;55.594;13.020;2023-11-22T10:38:35;20.90;37.10
83327;DHT22;73250;55.594;13.020;2023-11-22T10:41:04;21.00;37.20
83327;DHT22;73250;55.594;13.020;2023-11-22T10:43:31;21.00;37.20
83327;DHT22;73250;55.594;13.020;2023-11-22T10:46:01;21.00;37.30
83327;DHT22;73250;55.594;13.020;2023-11-22T10:48:28;21.00;37.20
83327;DHT22;73250;55.594;13.020;2023-11-22T10:50:57;21.00;37.20
83327;DHT22;73250;55.594;13.020;2023-11-22T10:53:31;21.00;37.10
83327;DHT22;73250;55.594;13.020;2023-11-22T10:56:04;21.00;37.20
83327;DHT22;73250;55.594;13.020;2023-11-22T10:58:33;21.00;37.20
83327;DHT22;73250;55.594;13.020;2023-11-22T11:01:01;21.00;37.40
83327;DHT22;73250;55.594;13.020;2023-11-22T11:03:37;21.00;37.40
83327;DHT22;73250;55.594;13.020;2023-11-22T11:06:09;21.00;37.60
83327;DHT22;73250;55.594;13.020;2023-11-22T11:08:38;21.00;37.50
83327;DHT22;73250;55.594;13.020;2023-11-22T11:11:07;21.00;37.40
83327;DHT22;73250;55.594;13.020;2023-11-22T11:13:34;21.00;38.00
83327;DHT22;73250;55.594;13.020;2023-11-22T11:16:01;21.00;37.50
83327;DHT22;73250;55.594;13.020;2023-11-22T11:18:28;21.00;37.40
83327;DHT22;73250;55.594;13.020;2023-11-22T11:20:56;21.00;37.40
83327;DHT22;73250;55.594;13.020;2023-11-22T11:23:25;21.00;37.30
83327;DHT22;73250;55.594;13.020;2023-11-22T11:25:54;21.00;37.30
83327;DHT22;73250;55.594;13.020;2023-11-22T11:28:22;21.00;37.00
83327;DHT22;73250;55.594;13.020;2023-11-22T11:30:51;21.00;37.50
83327;DHT22;73250;55.594;13.020;2023-11-22T11:33:19;21.00;37.40
83327;DHT22;73250;55.594;13.020;2023-11-22T11:35:52;21.00;37.70
83327;DHT22;73250;55.594;13.020;2023-11-22T11:38:19;21.00;37.50
83327;DHT22;73250;55.594;13.020;2023-11-22T11:40:47;21.00;37.40
83327;DHT22;73250;55.594;13.020;2023-11-22T11:43:14;21.00;37.60
83327;DHT22;73250;55.594;13.020;2023-11-22T11:45:43;21.00;37.70
83327;DHT22;73250;55.594;13.020;2023-11-22T11:48:13;21.00;37.40
83327;DHT22;73250;55.594;13.020;2023-11-22T11:50:40;21.10;37.40
83327;DHT22;73250;55.594;13.020;2023-11-22T11:53:07;21.00;37.50
83327;DHT22;73250;55.594;13.020;2023-11-22T11:55:34;21.00;37.70
83327;DHT22;73250;55.594;13.020;2023-11-22T11:58:05;21.10;37.60
83327;DHT22;73250;55.594;13.020;2023-11-22T12:00:34;21.10;37.70
83327;DHT22;73250;55.594;13.020;2023-11-22T12:03:04;21.10;37.80
83327;DHT22;73250;55.594;13.020;2023-11-22T12:05:31;21.10;37.60
83327;DHT22;73250;55.594;13.020;2023-11-22T12:07:58;21.10;37.60
83327;DHT22;73250;55.594;13.020;2023-11-22T12:10:25;21.10;37.70
83327;DHT22;73250;55.594;13.020;2023-11-22T12:12:52;21.10;37.90
83327;DHT22;73250;55.594;13.020;2023-11-22T12:15:19;21.10;37.90
83327;DHT22;73250;55.594;13.020;2023-11-22T12:17:48;21.20;37.90
83327;DHT22;73250;55.594;13.020;2023-11-22T12:20:18;21.10;38.20
83327;DHT22;73250;55.594;13.020;2023-11-22T12:22:47;21.20;38.20
83327;DHT22;73250;55.594;13.020;2023-11-22T12:25:14;21.20;38.30
83327;DHT22;73250;55.594;13.020;2023-11-22T12:27:41;21.20;37.90
83327;DHT22;73250;55.594;13.020;2023-11-22T12:30:09;21.20;37.70
83327;DHT22;73250;55.594;13.020;2023-11-22T12:32:38;21.20;37.90
83327;DHT22;73250;55.594;13.020;2023-11-22T12:35:06;21.20;38.10
83327;DHT22;73250;55.594;13.020;2023-11-22T12:37:36;21.30;37.70
83327;DHT22;73250;55.594;13.020;2023-11-22T12:40:14;21.30;37.60
83327;DHT22;73250;55.594;13.020;2023-11-22T12:42:47;21.30;37.60
83327;DHT22;73250;55.594;13.020;2023-11-22T12:45:19;21.30;37.50
83327;DHT22;73250;55.594;13.020;2023-11-22T12:47:47;21.30;37.60
83327;DHT22;73250;55.594;13.020;2023-11-22T12:50:33;21.30;37.80
83327;DHT22;73250;55.594;13.020;2023-11-22T12:53:09;21.40;37.80
83327;DHT22;73250;55.594;13.020;2023-11-22T12:55:37;21.40;37.50
83327;DHT22;73250;55.594;13.020;2023-11-22T12:58:05;21.40;37.70
83327;DHT22;73250;55.594;13.020;2023-11-22T13:00:33;21.30;37.50
83327;DHT22;73250;55.594;13.020;2023-11-22T13:02:59;21.40;37.60
83327;DHT22;73250;55.594;13.020;2023-11-22T13:05:26;21.40;37.60
83327;DHT22;73250;55.594;13.020;2023-11-22T13:07:53;21.40;37.90
83327;DHT22;73250;55.594;13.020;2023-11-22T13:10:20;21.40;38.20
83327;DHT22;73250;55.594;13.020;2023-11-22T13:12:54;21.40;37.70
83327;DHT22;73250;55.594;13.020;2023-11-22T13:15:20;21.40;37.60
83327;DHT22;73250;55.594;13.020;2023-11-22T13:17:49;21.40;37.50
83327;DHT22;73250;55.594;13.020;2023-11-22T13:20:17;21.40;37.70
83327;DHT22;73250;55.594;13.020;2023-11-22T13:22:45;21.40;37.70
83327;DHT22;73250;55.594;13.020;2023-11-22T13:25:12;21.40;37.80
83327;DHT22;73250;55.594;13.020;2023-11-22T13:27:41;21.40;37.40
83327;DHT22;73250;55.594;13.020;2023-11-22T13:30:08;21.40;37.40
83327;DHT22;73250;55.594;13.020;2023-11-22T13:32:34;21.40;37.30
83327;DHT22;73250;55.594;13.020;2023-11-22T13:35:01;21.40;37.10
83327;DHT22;73250;55.594;13.020;2023-11-22T13:37:30;21.40;37.50
83327;DHT22;73250;55.594;13.020;2023-11-22T13:39:57;21.60;37.10
83327;DHT22;73250;55.594;13.020;2023-11-22T13:42:24;21.60;37.00
83327;DHT22;73250;55.594;13.020;2023-11-22T13:44:52;21.50;37.00
83327;DHT22;73250;55.594;13.020;2023-11-22T13:47:18;21.50;36.70
83327;DHT22;73250;55.594;13.020;2023-11-22T13:49:46;21.50;36.80
83327;DHT22;73250;55.594;13.020;2023-11-22T13:52:13;21.50;36.80
83327;DHT22;73250;55.594;13.020;2023-11-22T13:54:39;21.50;36.70
83327;DHT22;73250;55.594;13.020;2023-11-22T13:57:06;21.50;36.70
83327;DHT22;73250;55.594;13.020;2023-11-22T13:59:32;21.40;36.70
83327;DHT22;73250;55.594;13.020;2023-11-22T14:02:01;21.50;36.60
83327;DHT22;73250;55.594;13.020;2023-11-22T14:04:27;21.40;36.70
83327;DHT22;73250;55.594;13.020;2023-11-22T14:06:54;21.50;36.90
83327;DHT22;73250;55.594;13.020;2023-11-22T14:09:21;21.50;36.70
83327;DHT22;73250;55.594;13.020;2023-11-22T14:11:47;21.40;36.40
83327;DHT22;73250;55.594;13.020;2023-11-22T14:14:14;21.40;36.40
83327;DHT22;73250;55.594;13.020;2023-11-22T14:16:42;21.50;36.30
83327;DHT22;73250;55.594;13.020;2023-11-22T14:19:11;21.50;36.30
83327;DHT22;73250;55.594;13.020;2023-11-22T14:21:38;21.50;36.30
83327;DHT22;73250;55.594;13.020;2023-11-22T14:24:06;21.50;36.30
83327;DHT22;73250;55.594;13.020;2023-11-22T14:26:34;21.50;36.00
83327;DHT22;73250;55.594;13.020;2023-11-22T14:29:01;21.50;36.20
83327;DHT22;73250;55.594;13.020;2023-11-22T14:31:28;21.50;36.30
83327;DHT22;73250;55.594;13.020;2023-11-22T14:33:54;21.50;36.30
83327;DHT22;73250;55.594;13.020;2023-11-22T14:36:23;21.50;36.20
83327;DHT22;73250;55.594;13.020;2023-11-22T14:38:51;21.50;36.20
83327;DHT22;73250;55.594;13.020;2023-11-22T14:41:22;21.50;36.20
83327;DHT22;73250;55.594;13.020;2023-11-22T14:43:48;21.50;36.20
83327;DHT22;73250;55.594;13.020;2023-11-22T14:46:15;21.50;36.30
83327;DHT22;73250;55.594;13.020;2023-11-22T14:48:43;21.50;36.30
83327;DHT22;73250;55.594;13.020;2023-11-22T14:51:12;21.80;35.80
83327;DHT22;73250;55.594;13.020;2023-11-22T14:53:40;21.70;36.10
83327;DHT22;73250;55.594;13.020;2023-11-22T14:56:09;21.70;36.00
83327;DHT22;73250;55.594;13.020;2023-11-22T14:58:36;21.70;36.10
83327;DHT22;73250;55.594;13.020;2023-11-22T15:01:03;21.60;36.00
83327;DHT22;73250;55.594;13.020;2023-11-22T15:03:32;21.60;36.10
83327;DHT22;73250;55.594;13.020;2023-11-22T15:05:58;21.60;36.20
83327;DHT22;73250;55.594;13.020;2023-11-22T15:08:25;21.60;36.10
83327;DHT22;73250;55.594;13.020;2023-11-22T15:10:55;21.60;36.20
83327;DHT22;73250;55.594;13.020;2023-11-22T15:13:21;21.60;36.10
83327;DHT22;73250;55.594;13.020;2023-11-22T15:15:50;21.60;36.10
83327;DHT22;73250;55.594;13.020;2023-11-22T15:18:16;21.60;35.90